createdAt,value
2022-10-13T00:00:47.678Z,32.97
2022-10-13T00:03:14.734Z,33.22
2022-10-13T00:05:49.362Z,31.27
2022-10-13T00:08:19.775Z,30.85
2022-10-13T00:10:48.500Z,32.22
2022-10-13T00:13:18.033Z,29.45
2022-10-13T00:15:46.493Z,31.85
2022-10-13T00:18:13.750Z,28.23
2022-10-13T00:20:45.555Z,32.90
2022-10-13T00:23:13.823Z,32.20
2022-10-13T00:25:42.389Z,29.75
2022-10-13T00:28:09.286Z,28.95
2022-10-13T00:30:38.862Z,30.58
2022-10-13T00:33:06.112Z,30.10
2022-10-13T00:35:33.255Z,27.20
2022-10-13T00:37:59.887Z,28.20
2022-10-13T00:40:30.791Z,28.73
2022-10-13T00:42:57.338Z,24.90
2022-10-13T00:47:57.101Z,22.58
2022-10-13T00:50:33.585Z,25.42
2022-10-13T00:53:02.621Z,26.33
2022-10-13T00:55:36.055Z,23.20
2022-10-13T00:58:07.876Z,23.20
2022-10-13T01:00:35.219Z,23.52
2022-10-13T01:03:02.884Z,23.15
2022-10-13T01:05:30.251Z,21.83
2022-10-13T01:07:58.220Z,24.10
2022-10-13T01:10:36.939Z,22.92
2022-10-13T01:13:22.433Z,24.30
2022-10-13T01:15:57.652Z,24.85
2022-10-13T01:18:40.641Z,25.15
2022-10-13T01:21:09.906Z,27.70
2022-10-13T01:23:51.190Z,26.00
2022-10-13T01:26:54.293Z,26.10
2022-10-13T01:29:42.305Z,23.85
2022-10-13T01:32:35.874Z,24.85
2022-10-13T01:35:11.465Z,23.38
2022-10-13T01:37:47.087Z,29.77
2022-10-13T01:40:37.652Z,27.73
2022-10-13T01:43:13.815Z,30.45
2022-10-13T01:45:56.409Z,32.17
2022-10-13T01:48:25.297Z,29.55
2022-10-13T01:50:54.178Z,27.30
2022-10-13T01:53:21.499Z,28.80
2022-10-13T01:55:55.830Z,28.80
2022-10-13T01:58:25.033Z,28.42
2022-10-13T02:01:18.659Z,28.00
2022-10-13T02:04:20.817Z,28.67
2022-10-13T02:06:49.942Z,27.50
2022-10-13T02:09:25.901Z,30.50
2022-10-13T02:12:05.376Z,28.83
2022-10-13T02:14:36.628Z,29.73
2022-10-13T02:17:05.324Z,28.25
2022-10-13T02:19:37.571Z,28.80
2022-10-13T02:22:06.003Z,27.05
2022-10-13T02:24:32.980Z,27.25
2022-10-13T02:26:59.444Z,29.25
2022-10-13T02:29:25.884Z,28.65
2022-10-13T02:31:54.738Z,31.60
2022-10-13T02:34:21.223Z,29.10
2022-10-13T02:39:14.543Z,29.08
2022-10-13T02:41:40.974Z,29.13
2022-10-13T02:44:07.531Z,29.00
2022-10-13T02:46:36.213Z,30.13
2022-10-13T02:49:02.747Z,31.10
2022-10-13T02:51:30.116Z,29.52
2022-10-13T02:53:56.547Z,27.27
2022-10-13T02:56:22.992Z,26.20
2022-10-13T02:58:49.486Z,26.60
2022-10-13T03:01:16.177Z,24.58
2022-10-13T03:03:43.368Z,28.63
2022-10-13T03:06:09.875Z,28.17
2022-10-13T03:11:03.263Z,22.98
2022-10-13T03:13:30.106Z,22.52
2022-10-13T03:16:04.361Z,23.75
2022-10-13T03:18:30.804Z,26.00
2022-10-13T03:21:07.057Z,23.00
2022-10-13T03:23:36.697Z,24.42
2022-10-13T03:26:04.484Z,24.17
2022-10-13T03:28:31.115Z,23.48
2022-10-13T03:31:06.066Z,26.17
2022-10-13T03:33:32.761Z,26.88
2022-10-13T03:36:04.388Z,25.05
2022-10-13T03:38:32.414Z,27.48
2022-10-13T03:41:05.230Z,26.02
2022-10-13T03:43:31.851Z,27.20
2022-10-13T03:48:26.702Z,24.70
2022-10-13T03:50:53.250Z,24.98
2022-10-13T03:55:50.928Z,26.70
2022-10-13T03:58:17.743Z,27.23
2022-10-13T04:00:46.013Z,24.88
2022-10-13T04:03:12.679Z,27.55
2022-10-13T04:05:39.324Z,26.27
2022-10-13T04:08:05.884Z,27.00
2022-10-13T04:10:32.709Z,25.73
2022-10-13T04:12:59.804Z,24.35
2022-10-13T04:15:26.940Z,29.08
2022-10-13T04:17:53.404Z,28.67
2022-10-13T04:20:19.841Z,27.88
2022-10-13T04:22:46.326Z,26.02
2022-10-13T04:27:39.521Z,27.25
2022-10-13T04:30:06.899Z,24.95
2022-10-13T04:32:33.626Z,26.52
2022-10-13T04:35:02.852Z,25.13
2022-10-13T04:37:29.354Z,24.83
2022-10-13T04:42:22.724Z,23.35
2022-10-13T04:44:49.419Z,24.83
2022-10-13T04:47:20.811Z,25.33
2022-10-13T04:49:47.287Z,26.95
2022-10-13T04:54:40.645Z,28.90
2022-10-13T04:58:12.197Z,27.67
2022-10-13T05:00:38.697Z,30.48
2022-10-13T05:03:05.218Z,30.92
2022-10-13T05:05:35.107Z,30.38
2022-10-13T05:08:02.606Z,28.67
2022-10-13T05:10:33.871Z,27.38
2022-10-13T05:13:01.282Z,28.58
2022-10-13T05:17:54.212Z,41.67
2022-10-13T05:22:47.200Z,28.77
2022-10-13T05:25:13.737Z,31.95
2022-10-13T05:30:09.624Z,28.83
2022-10-13T05:32:36.119Z,28.63
2022-10-13T05:37:29.254Z,28.05
2022-10-13T05:42:22.456Z,28.05
2022-10-13T05:44:49.230Z,27.08
2022-10-13T05:49:44.815Z,29.60
2022-10-13T05:54:48.572Z,31.60
2022-10-13T05:57:21.157Z,30.77
2022-10-13T05:59:54.889Z,31.10
2022-10-13T06:02:24.772Z,30.85
2022-10-13T06:04:55.854Z,39.08
2022-10-13T06:07:22.414Z,48.67
2022-10-13T06:12:16.215Z,32.13
2022-10-13T06:17:11.382Z,29.10
2022-10-13T06:19:38.407Z,28.73
2022-10-13T06:22:08.422Z,31.45
2022-10-13T06:24:34.981Z,29.15
2022-10-13T06:27:03.582Z,28.05
2022-10-13T06:29:30.203Z,30.38
2022-10-13T06:34:23.120Z,29.25
2022-10-13T06:39:16.068Z,29.45
2022-10-13T06:44:09.190Z,35.15
2022-10-13T06:46:35.706Z,30.15
2022-10-13T06:51:29.247Z,31.10
2022-10-13T06:56:25.487Z,28.92
2022-10-13T07:01:18.503Z,28.08
2022-10-13T07:06:14.356Z,25.23
2022-10-13T07:08:40.896Z,27.17
2022-10-13T07:11:15.313Z,26.55
2022-10-13T07:13:46.257Z,30.30
2022-10-13T07:16:15.755Z,29.05
2022-10-13T07:18:42.424Z,27.80
2022-10-13T07:21:09.498Z,29.13
2022-10-13T07:23:35.980Z,31.30
2022-10-13T07:26:07.375Z,29.20
2022-10-13T07:28:34.051Z,26.60
2022-10-13T07:31:00.645Z,25.25
2022-10-13T07:33:27.386Z,28.35
2022-10-13T07:38:20.342Z,25.90
2022-10-13T07:40:47.859Z,29.30
2022-10-13T07:45:40.885Z,24.60
2022-10-13T07:50:33.955Z,26.55
2022-10-13T07:55:27.404Z,27.17
2022-10-13T07:57:54.055Z,26.42
2022-10-13T08:02:51.040Z,24.88
2022-10-13T08:05:17.944Z,26.70
2022-10-13T08:07:44.489Z,27.25
2022-10-13T08:12:37.893Z,24.58
2022-10-13T08:15:06.718Z,28.83
2022-10-13T08:17:33.419Z,28.63
2022-10-13T08:22:28.552Z,27.10
2022-10-13T08:24:55.977Z,30.63
2022-10-13T08:27:32.840Z,27.73
2022-10-13T08:30:09.690Z,25.67
2022-10-13T08:32:36.292Z,27.90
2022-10-13T08:35:04.336Z,25.63
2022-10-13T08:37:30.948Z,26.30
2022-10-13T08:39:57.471Z,27.83
2022-10-13T08:42:23.959Z,26.02
2022-10-13T08:48:07.463Z,25.08
2022-10-13T08:50:39.325Z,25.77
2022-10-13T08:53:33.255Z,25.55
2022-10-13T08:56:15.163Z,24.45
2022-10-13T08:58:45.232Z,23.58
2022-10-13T09:01:18.510Z,25.38
2022-10-13T09:04:11.988Z,25.48
2022-10-13T09:06:45.072Z,23.90
2022-10-13T09:09:14.362Z,25.05
2022-10-13T09:11:44.658Z,26.23
2022-10-13T09:14:22.299Z,24.17
2022-10-13T09:16:49.499Z,24.60
2022-10-13T09:19:25.131Z,23.98
2022-10-13T09:21:57.595Z,23.13
2022-10-13T09:24:26.391Z,21.95
2022-10-13T09:27:05.510Z,25.02
2022-10-13T09:29:32.357Z,24.23
2022-10-13T09:32:21.079Z,24.67
2022-10-13T09:34:48.477Z,23.52
2022-10-13T09:37:25.609Z,25.30
2022-10-13T09:42:38.751Z,24.23
2022-10-13T09:45:21.331Z,24.55
2022-10-13T09:47:57.831Z,22.92
2022-10-13T09:50:27.025Z,22.33
2022-10-13T09:52:54.316Z,22.65
2022-10-13T09:55:34.920Z,24.73
2022-10-13T09:58:24.508Z,21.95
2022-10-13T10:00:53.307Z,22.52
2022-10-13T10:03:29.321Z,21.90
2022-10-13T10:06:01.746Z,27.42
2022-10-13T10:09:01.678Z,23.02
2022-10-13T10:11:30.540Z,23.00
2022-10-13T10:13:57.639Z,21.83
2022-10-13T10:32:42.801Z,22.30
2022-10-13T10:35:21.053Z,22.63
2022-10-13T10:38:20.462Z,22.20
2022-10-13T10:40:56.324Z,22.73
2022-10-13T10:43:43.216Z,22.20
2022-10-13T10:46:22.541Z,22.50
2022-10-13T10:48:53.949Z,24.13
2022-10-13T10:51:25.326Z,23.00
2022-10-13T10:54:23.802Z,22.45
2022-10-13T10:57:16.197Z,21.65
2022-10-13T11:00:10.223Z,22.67
2022-10-13T11:03:01.687Z,20.08
2022-10-13T11:06:20.866Z,19.77
2022-10-13T11:08:49.326Z,21.67
2022-10-13T11:11:24.688Z,19.77
2022-10-13T11:13:59.713Z,18.60
2022-10-13T11:16:31.253Z,15.52
2022-10-13T11:19:19.927Z,21.40
2022-10-13T11:21:52.444Z,19.77
2022-10-13T11:24:33.907Z,20.00
2022-10-13T11:27:10.625Z,19.17
2022-10-13T11:29:46.616Z,21.05
2022-10-13T11:32:30.489Z,19.17
2022-10-13T11:35:06.142Z,18.77
2022-10-13T11:38:08.774Z,17.25
2022-10-13T11:40:58.977Z,18.58
2022-10-13T11:43:40.842Z,18.88
2022-10-13T11:46:21.921Z,19.13
2022-10-13T11:49:16.771Z,18.58
2022-10-13T11:52:02.121Z,20.15
2022-10-13T11:54:54.713Z,16.50
2022-10-13T11:57:24.322Z,19.02
2022-10-13T11:59:55.382Z,16.67
2022-10-13T12:02:48.312Z,18.92
2022-10-13T12:05:25.514Z,15.45
2022-10-13T12:07:55.519Z,15.23
2022-10-13T12:10:31.607Z,19.48
2022-10-13T12:13:01.014Z,17.13
2022-10-13T12:15:37.916Z,19.30
2022-10-13T12:18:21.430Z,19.98
2022-10-13T12:20:56.236Z,17.80
2022-10-13T12:23:22.741Z,21.50
2022-10-13T12:25:56.508Z,18.85
2022-10-13T12:28:25.865Z,19.27
2022-10-13T12:30:58.582Z,19.05
2022-10-13T12:33:35.314Z,19.77
2022-10-13T12:36:18.774Z,20.63
2022-10-13T12:38:54.015Z,19.50
2022-10-13T12:41:30.538Z,19.65
2022-10-13T12:44:01.044Z,16.42
2022-10-13T12:46:47.684Z,15.60
2022-10-13T12:49:17.136Z,18.65
2022-10-13T12:51:46.575Z,16.33
2022-10-13T12:54:24.393Z,17.05
2022-10-13T12:56:56.395Z,17.45
2022-10-13T12:59:24.556Z,15.18
2022-10-13T13:01:57.010Z,15.70
2022-10-13T13:04:38.331Z,15.35
2022-10-13T13:07:06.612Z,15.93
2022-10-13T13:09:35.547Z,16.42
2022-10-13T13:12:21.841Z,15.65
2022-10-13T13:14:52.375Z,16.50
2022-10-13T13:17:38.504Z,13.25
2022-10-13T13:20:21.751Z,14.93
2022-10-13T13:22:48.423Z,16.05
2022-10-13T13:25:15.086Z,14.70
2022-10-13T13:30:12.910Z,12.77
2022-10-13T13:32:39.706Z,15.20
2022-10-13T13:35:07.688Z,18.00
2022-10-13T13:37:37.334Z,13.48
2022-10-13T13:40:05.793Z,13.32
2022-10-13T13:42:32.561Z,13.90
2022-10-13T13:44:59.101Z,14.95
2022-10-13T13:49:54.633Z,15.75
2022-10-13T13:52:21.971Z,15.38
2022-10-13T13:54:49.458Z,14.63
2022-10-13T13:57:16.407Z,17.85
2022-10-13T13:59:43.316Z,14.50
2022-10-13T14:02:21.256Z,14.27
2022-10-13T14:04:47.925Z,15.40
2022-10-13T14:07:14.579Z,15.25
2022-10-13T14:12:09.521Z,16.98
2022-10-13T14:14:36.003Z,16.73
2022-10-13T14:17:03.710Z,15.93
2022-10-13T14:19:33.448Z,14.85
2022-10-13T14:22:03.704Z,14.38
2022-10-13T14:24:33.662Z,14.23
2022-10-13T14:27:02.114Z,13.95
2022-10-13T14:29:28.553Z,13.35
2022-10-13T14:31:54.988Z,16.00
2022-10-13T14:36:48.120Z,16.15
2022-10-13T14:39:15.364Z,25.85
2022-10-13T14:44:11.493Z,17.85
2022-10-13T14:46:40.413Z,14.85
2022-10-13T14:49:06.893Z,16.20
2022-10-13T14:51:34.881Z,28.50
2022-10-13T14:54:02.673Z,30.20
2022-10-13T14:56:30.319Z,32.88
2022-10-13T14:59:00.645Z,21.95
2022-10-13T15:01:35.919Z,17.90
2022-10-13T15:04:03.380Z,17.88
2022-10-13T15:06:30.997Z,15.05
2022-10-13T15:08:57.722Z,13.63
2022-10-13T15:11:25.871Z,12.98
2022-10-13T15:13:52.822Z,12.20
2022-10-13T15:16:24.360Z,12.32
2022-10-13T15:18:51.154Z,12.50
2022-10-13T15:21:18.566Z,10.88
2022-10-13T15:23:45.432Z,11.90
2022-10-13T15:26:13.653Z,11.57
2022-10-13T15:28:43.507Z,11.38
2022-10-13T15:31:11.762Z,12.70
2022-10-13T15:33:38.766Z,10.95
2022-10-13T15:36:05.341Z,9.77
2022-10-13T15:38:31.845Z,11.75
2022-10-13T15:41:03.556Z,12.05
2022-10-13T15:43:30.294Z,13.68
2022-10-13T15:46:02.823Z,10.63
2022-10-13T15:48:29.442Z,12.77
2022-10-13T15:53:22.712Z,12.13
2022-10-13T15:55:49.455Z,11.75
2022-10-13T15:58:16.595Z,12.48
2022-10-13T16:00:43.592Z,12.63
2022-10-13T16:03:15.173Z,11.95
2022-10-13T16:05:43.203Z,13.35
2022-10-13T16:08:11.086Z,12.60
2022-10-13T16:10:43.926Z,12.05
2022-10-13T16:13:14.957Z,11.30
2022-10-13T16:15:42.707Z,11.25
2022-10-13T16:18:09.328Z,13.00
2022-10-13T16:23:04.820Z,12.43
2022-10-13T16:25:31.988Z,14.52
2022-10-13T16:27:59.384Z,14.32
2022-10-13T16:30:25.911Z,12.73
2022-10-13T16:35:18.669Z,13.90
2022-10-13T16:37:45.104Z,12.82
2022-10-13T16:40:11.558Z,11.85
2022-10-13T16:42:38.079Z,11.80
2022-10-13T16:47:31.249Z,12.48
2022-10-13T16:49:57.647Z,10.85
2022-10-13T16:52:24.107Z,11.13
2022-10-13T16:54:51.724Z,10.50
2022-10-13T16:57:18.410Z,11.82
2022-10-13T16:59:48.855Z,15.35
2022-10-13T17:02:15.474Z,14.95
2022-10-13T17:04:43.175Z,15.50
2022-10-13T17:07:09.664Z,18.17
2022-10-13T17:09:36.164Z,20.20
2022-10-13T17:14:29.175Z,26.33
2022-10-13T17:16:58.019Z,28.17
2022-10-13T17:19:25.101Z,36.75
2022-10-13T17:21:51.545Z,36.40
2022-10-13T17:24:18.299Z,34.20
2022-10-13T17:26:44.756Z,28.80
2022-10-13T17:29:11.367Z,26.40
2022-10-13T17:34:06.030Z,14.32
2022-10-13T17:36:34.097Z,12.10
2022-10-13T17:39:09.119Z,11.35
2022-10-13T17:41:40.140Z,12.00
2022-10-13T17:44:06.688Z,12.75
2022-10-13T17:49:07.863Z,13.70
2022-10-13T17:51:34.913Z,12.80
2022-10-13T17:54:02.381Z,13.10
2022-10-13T17:56:29.329Z,13.07
2022-10-13T17:58:56.690Z,12.07
2022-10-13T18:01:27.376Z,13.23
2022-10-13T18:03:57.065Z,14.63
2022-10-13T18:06:37.927Z,14.52
2022-10-13T18:09:11.193Z,13.13
2022-10-13T18:11:38.624Z,12.52
2022-10-13T18:14:06.127Z,14.70
2022-10-13T18:16:32.871Z,15.23
2022-10-13T18:18:59.354Z,12.90
2022-10-13T18:21:29.388Z,12.98
2022-10-13T18:23:58.369Z,14.45
2022-10-13T18:26:26.743Z,15.23
2022-10-13T18:28:53.864Z,14.90
2022-10-13T18:31:29.946Z,16.35
2022-10-13T18:34:01.268Z,15.50
2022-10-13T18:36:35.178Z,16.20
2022-10-13T18:39:08.233Z,15.13
2022-10-13T18:41:36.699Z,14.40
2022-10-13T18:44:04.042Z,13.65
2022-10-13T18:46:31.330Z,13.85
2022-10-13T18:48:58.331Z,14.25
2022-10-13T18:51:26.245Z,15.10
2022-10-13T18:53:52.711Z,15.68
2022-10-13T18:56:23.488Z,15.85
2022-10-13T18:58:55.682Z,16.33
2022-10-13T19:01:26.609Z,16.40
2022-10-13T19:03:54.384Z,15.13
2022-10-13T19:06:26.558Z,19.05
2022-10-13T19:08:58.487Z,21.38
2022-10-13T19:11:25.104Z,20.58
2022-10-13T19:16:20.783Z,19.17
2022-10-13T19:18:48.591Z,18.83
2022-10-13T19:21:15.093Z,17.65
2022-10-13T19:23:42.114Z,16.23
2022-10-13T19:26:29.708Z,15.98
2022-10-13T19:28:58.928Z,15.98
2022-10-13T19:31:27.500Z,14.40
2022-10-13T19:33:55.640Z,15.85
2022-10-13T19:36:33.731Z,14.50
2022-10-13T19:39:01.670Z,14.50
2022-10-13T19:41:30.734Z,15.68
2022-10-13T19:43:58.567Z,15.40
2022-10-13T19:46:34.729Z,14.52
2022-10-13T19:49:02.256Z,14.98
2022-10-13T19:51:28.739Z,14.52
2022-10-13T19:53:55.272Z,15.10
2022-10-13T19:58:53.620Z,14.50
2022-10-13T20:01:22.428Z,15.63
2022-10-13T20:03:49.890Z,16.20
2022-10-13T20:06:17.624Z,16.48
2022-10-13T20:08:45.114Z,17.40
2022-10-13T20:11:15.161Z,18.20
2022-10-13T20:13:45.170Z,20.98
2022-10-13T20:16:14.318Z,20.08
2022-10-13T20:18:41.439Z,19.70
2022-10-13T20:21:10.853Z,23.05
2022-10-13T20:23:37.716Z,25.88
2022-10-13T20:26:07.768Z,26.08
2022-10-13T20:28:39.241Z,27.13
2022-10-13T20:31:09.196Z,26.50
2022-10-13T20:33:36.066Z,27.55
2022-10-13T20:36:05.343Z,25.13
2022-10-13T20:38:35.350Z,24.85
2022-10-13T20:41:25.968Z,27.33
2022-10-13T20:43:54.542Z,24.83
2022-10-13T20:46:21.899Z,25.17
2022-10-13T20:49:09.845Z,24.70
2022-10-13T20:51:35.652Z,25.60
2022-10-13T20:56:28.510Z,24.40
2022-10-13T20:58:55.078Z,23.80
2022-10-13T21:01:22.705Z,26.45
2022-10-13T21:03:52.926Z,25.83
2022-10-13T21:06:19.640Z,25.88
2022-10-13T21:08:47.087Z,26.90
2022-10-13T21:11:15.634Z,26.15
2022-10-13T21:13:43.689Z,25.55
2022-10-13T21:16:18.496Z,26.73
2022-10-13T21:18:48.109Z,26.70
2022-10-13T21:21:23.123Z,29.65
2022-10-13T21:23:56.284Z,24.63
2022-10-13T21:26:24.654Z,27.55
2022-10-13T21:28:51.998Z,25.77
2022-10-13T21:31:21.366Z,24.42
2022-10-13T21:33:48.360Z,25.02
2022-10-13T21:36:17.586Z,23.05
2022-10-13T21:38:46.246Z,22.90
2022-10-13T21:41:14.456Z,21.65
2022-10-13T21:43:41.213Z,22.02
2022-10-13T21:46:20.048Z,23.08
2022-10-13T21:48:54.018Z,22.83
2022-10-13T21:51:24.717Z,21.10
2022-10-13T21:53:56.433Z,20.60
2022-10-13T21:56:24.230Z,21.45
2022-10-13T21:58:50.723Z,24.52
2022-10-13T22:17:30.536Z,22.05
2022-10-13T22:19:57.021Z,25.10
2022-10-13T22:24:55.154Z,24.63
2022-10-13T22:27:21.940Z,28.73
2022-10-13T22:29:48.686Z,25.98
2022-10-13T22:34:41.632Z,27.40
2022-10-13T22:37:08.091Z,27.92
2022-10-13T22:39:34.701Z,24.27
2022-10-13T22:42:07.912Z,25.80
2022-10-13T22:47:00.749Z,26.23
2022-10-13T22:49:27.273Z,26.52
2022-10-13T22:54:20.082Z,26.92
2022-10-13T22:56:46.493Z,26.17
2022-10-13T22:59:13.880Z,27.33
2022-10-13T23:01:40.533Z,28.05
2022-10-13T23:04:06.992Z,26.60
2022-10-13T23:06:34.960Z,26.13
2022-10-13T23:09:04.612Z,27.08
2022-10-13T23:11:31.064Z,26.77
2022-10-13T23:14:00.917Z,24.88
2022-10-13T23:16:28.081Z,26.70
2022-10-13T23:18:54.563Z,25.80
2022-10-13T23:21:27.378Z,26.48
2022-10-13T23:23:55.838Z,25.45
2022-10-13T23:26:22.819Z,25.40
2022-10-13T23:28:49.459Z,25.10
2022-10-13T23:31:17.535Z,25.80
2022-10-13T23:33:44.794Z,26.40
2022-10-13T23:36:19.217Z,27.90
2022-10-13T23:38:54.874Z,26.38
2022-10-13T23:41:21.380Z,27.77
2022-10-13T23:43:48.170Z,24.88
2022-10-13T23:46:14.748Z,25.45
2022-10-13T23:48:41.381Z,23.10
2022-10-13T23:53:40.104Z,25.52
2022-10-13T23:56:08.390Z,24.30
2022-10-13T23:58:39.519Z,24.55
